createdAt,value
2023-08-29T00:01:20.970Z,0.55
2023-08-29T00:03:48.826Z,0.98
2023-08-29T00:06:16.188Z,1.13
2023-08-29T00:08:43.564Z,0.80
2023-08-29T00:11:10.839Z,1.08
2023-08-29T00:13:38.190Z,0.82
2023-08-29T00:16:06.583Z,0.98
2023-08-29T00:18:33.926Z,0.75
2023-08-29T00:21:01.190Z,0.60
2023-08-29T00:23:28.865Z,0.95
2023-08-29T00:25:56.153Z,1.00
2023-08-29T00:28:24.599Z,1.10
2023-08-29T00:30:52.204Z,1.10
2023-08-29T00:33:19.536Z,0.60
2023-08-29T00:35:50.008Z,0.50
2023-08-29T00:38:17.486Z,0.73
2023-08-29T00:40:45.560Z,0.65
2023-08-29T00:43:13.073Z,0.63
2023-08-29T00:45:40.957Z,0.52
2023-08-29T00:48:09.970Z,0.73
2023-08-29T00:50:39.118Z,0.50
2023-08-29T00:53:07.815Z,0.40
2023-08-29T00:55:35.955Z,0.70
2023-08-29T00:58:04.864Z,0.68
2023-08-29T01:00:33.704Z,0.70
2023-08-29T01:03:04.140Z,0.55
2023-08-29T01:05:34.207Z,0.30
2023-08-29T01:08:04.042Z,0.40
2023-08-29T01:10:58.575Z,0.50
2023-08-29T01:13:49.838Z,0.43
2023-08-29T01:16:22.761Z,0.30
2023-08-29T01:18:53.195Z,0.50
2023-08-29T01:21:48.548Z,0.60
2023-08-29T01:24:31.700Z,0.50
2023-08-29T01:27:01.922Z,0.40
2023-08-29T01:29:30.043Z,0.65
2023-08-29T01:31:58.880Z,0.40
2023-08-29T01:34:27.218Z,0.60
2023-08-29T01:36:54.560Z,0.35
2023-08-29T01:39:22.452Z,0.30
2023-08-29T01:41:49.747Z,0.50
2023-08-29T01:44:17.097Z,0.38
2023-08-29T01:46:44.454Z,0.50
2023-08-29T01:49:13.171Z,0.40
2023-08-29T01:51:40.712Z,0.20
2023-08-29T01:54:08.157Z,0.40
2023-08-29T01:56:40.881Z,0.40
2023-08-29T01:59:09.693Z,0.20
2023-08-29T02:01:37.294Z,0.17
2023-08-29T02:04:05.039Z,0.30
2023-08-29T02:06:32.374Z,0.40
2023-08-29T02:08:59.765Z,0.65
2023-08-29T02:11:27.598Z,0.30
2023-08-29T02:13:59.064Z,0.30
2023-08-29T02:16:26.577Z,0.40
2023-08-29T02:18:54.282Z,0.52
2023-08-29T02:21:21.629Z,0.47
2023-08-29T02:23:48.955Z,0.30
2023-08-29T02:26:16.375Z,0.40
2023-08-29T02:28:43.737Z,0.22
2023-08-29T02:31:11.716Z,0.52
2023-08-29T02:33:39.737Z,0.40
2023-08-29T02:36:07.626Z,0.20
2023-08-29T02:38:35.523Z,0.30
2023-08-29T02:41:03.263Z,0.30
2023-08-29T02:43:30.802Z,0.60
2023-08-29T02:45:59.562Z,0.43
2023-08-29T02:48:28.461Z,0.50
2023-08-29T02:50:55.792Z,0.40
2023-08-29T02:53:23.415Z,0.50
2023-08-29T02:55:52.530Z,0.32
2023-08-29T02:58:22.547Z,0.32
2023-08-29T03:01:00.114Z,0.50
2023-08-29T03:03:28.109Z,0.50
2023-08-29T03:05:56.947Z,0.80
2023-08-29T03:08:25.465Z,0.50
2023-08-29T03:10:54.085Z,0.45
2023-08-29T03:13:22.692Z,0.40
2023-08-29T03:15:50.263Z,0.40
2023-08-29T03:18:18.371Z,0.35
2023-08-29T03:20:46.461Z,0.57
2023-08-29T03:23:13.878Z,0.20
2023-08-29T03:25:41.296Z,0.35
2023-08-29T03:28:10.050Z,0.30
2023-08-29T03:30:37.603Z,0.40
2023-08-29T03:33:05.194Z,0.38
2023-08-29T03:35:32.720Z,0.40
2023-08-29T03:38:00.777Z,0.43
2023-08-29T03:40:28.039Z,0.30
2023-08-29T03:42:55.366Z,0.15
2023-08-29T03:45:23.154Z,0.35
2023-08-29T03:47:50.676Z,0.20
2023-08-29T03:50:21.614Z,0.40
2023-08-29T03:52:49.445Z,0.30
2023-08-29T03:55:17.260Z,0.35
2023-08-29T03:57:44.602Z,0.20
2023-08-29T04:00:12.572Z,0.20
2023-08-29T04:02:43.758Z,0.30
2023-08-29T04:05:15.837Z,0.25
2023-08-29T04:07:43.799Z,0.20
2023-08-29T04:10:14.116Z,0.28
2023-08-29T04:12:41.476Z,0.20
2023-08-29T04:15:09.514Z,0.20
2023-08-29T04:17:36.826Z,0.10
2023-08-29T04:20:09.315Z,0.20
2023-08-29T04:22:37.085Z,0.10
2023-08-29T04:25:05.698Z,0.20
2023-08-29T04:27:33.028Z,0.10
2023-08-29T04:30:00.335Z,0.17
2023-08-29T04:32:27.686Z,0.30
2023-08-29T04:34:55.145Z,0.20
2023-08-29T04:37:22.428Z,0.30
2023-08-29T04:39:49.756Z,0.30
2023-08-29T04:42:17.824Z,0.30
2023-08-29T04:44:47.921Z,0.20
2023-08-29T04:47:16.497Z,0.68
2023-08-29T04:49:44.231Z,0.40
2023-08-29T04:52:11.546Z,0.40
2023-08-29T04:54:38.831Z,0.40
2023-08-29T04:57:06.739Z,0.57
2023-08-29T04:59:34.980Z,0.30
2023-08-29T05:02:02.413Z,0.30
2023-08-29T05:04:29.681Z,0.47
2023-08-29T05:06:57.135Z,0.30
2023-08-29T05:09:25.678Z,0.30
2023-08-29T05:11:52.966Z,0.30
2023-08-29T05:14:20.371Z,0.40
2023-08-29T05:16:47.930Z,0.50
2023-08-29T05:19:15.267Z,0.65
2023-08-29T05:21:42.674Z,0.40
2023-08-29T05:24:11.723Z,0.40
2023-08-29T05:26:39.138Z,0.40
2023-08-29T05:29:06.532Z,0.75
2023-08-29T05:31:33.870Z,0.60
2023-08-29T05:34:01.221Z,0.43
2023-08-29T05:36:28.675Z,0.50
2023-08-29T05:38:55.941Z,0.45
2023-08-29T05:41:23.342Z,0.38
2023-08-29T05:43:50.682Z,0.30
2023-08-29T05:46:18.026Z,0.43
2023-08-29T05:48:45.356Z,0.70
2023-08-29T05:51:12.713Z,0.40
2023-08-29T05:53:40.005Z,0.30
2023-08-29T05:56:07.302Z,0.47
2023-08-29T05:58:34.694Z,0.50
2023-08-29T06:01:01.976Z,0.40
2023-08-29T06:03:29.398Z,0.30
2023-08-29T06:05:56.922Z,0.50
2023-08-29T06:08:24.646Z,0.60
2023-08-29T06:10:52.165Z,0.40
2023-08-29T06:13:19.491Z,0.20
2023-08-29T06:15:46.828Z,0.50
2023-08-29T06:18:14.172Z,0.40
2023-08-29T06:20:41.512Z,0.20
2023-08-29T06:23:08.829Z,0.30
2023-08-29T06:25:36.841Z,0.50
2023-08-29T06:28:04.633Z,0.30
2023-08-29T06:30:32.609Z,0.47
2023-08-29T06:33:00.101Z,0.63
2023-08-29T06:35:27.504Z,0.28
2023-08-29T06:37:56.797Z,0.38
2023-08-29T06:40:24.095Z,0.30
2023-08-29T06:42:51.383Z,0.30
2023-08-29T06:45:18.744Z,0.30
2023-08-29T06:47:46.082Z,0.35
2023-08-29T06:50:13.715Z,0.25
2023-08-29T06:52:41.042Z,0.30
2023-08-29T06:55:10.850Z,0.50
2023-08-29T06:57:38.318Z,0.50
2023-08-29T07:00:06.139Z,0.20
2023-08-29T07:02:33.511Z,0.50
2023-08-29T07:05:00.894Z,0.30
2023-08-29T07:07:28.160Z,0.25
2023-08-29T07:09:55.963Z,0.63
2023-08-29T07:12:23.306Z,0.50
2023-08-29T07:14:50.628Z,0.35
2023-08-29T07:17:18.650Z,0.50
2023-08-29T07:19:46.076Z,0.47
2023-08-29T07:24:44.985Z,0.73
2023-08-29T07:27:12.360Z,0.63
2023-08-29T07:29:39.636Z,0.60
2023-08-29T07:32:07.339Z,0.50
2023-08-29T07:34:35.739Z,0.45
2023-08-29T07:37:03.949Z,0.57
2023-08-29T07:39:31.407Z,0.57
2023-08-29T07:41:58.768Z,0.98
2023-08-29T07:44:26.097Z,0.40
2023-08-29T07:47:11.817Z,0.52
2023-08-29T07:49:40.791Z,0.45
2023-08-29T07:52:08.110Z,0.43
2023-08-29T07:54:35.373Z,0.45
2023-08-29T07:57:02.822Z,0.60
2023-08-29T07:59:30.169Z,0.28
2023-08-29T08:01:57.592Z,0.60
2023-08-29T08:04:25.191Z,0.80
2023-08-29T08:06:53.802Z,0.57
2023-08-29T08:09:21.210Z,0.50
2023-08-29T08:11:48.643Z,0.70
2023-08-29T08:14:18.407Z,0.70
2023-08-29T08:16:45.841Z,0.68
2023-08-29T08:19:13.981Z,0.63
2023-08-29T08:21:41.280Z,0.70
2023-08-29T08:24:09.364Z,0.43
2023-08-29T08:26:36.802Z,0.60
2023-08-29T08:29:05.621Z,0.70
2023-08-29T08:31:33.802Z,0.63
2023-08-29T08:34:01.879Z,0.77
2023-08-29T08:36:30.066Z,0.82
2023-08-29T08:38:57.447Z,0.60
2023-08-29T08:41:25.543Z,0.90
2023-08-29T08:43:53.091Z,0.57
2023-08-29T08:46:20.779Z,0.70
2023-08-29T08:48:48.636Z,0.70
2023-08-29T08:51:17.342Z,0.50
2023-08-29T08:53:44.851Z,0.60
2023-08-29T08:56:12.330Z,0.60
2023-08-29T08:58:39.801Z,0.68
2023-08-29T09:01:07.168Z,0.52
2023-08-29T09:03:36.253Z,0.80
2023-08-29T09:06:05.371Z,0.45
2023-08-29T09:08:35.421Z,0.83
2023-08-29T09:11:03.165Z,0.77
2023-08-29T09:13:31.331Z,0.70
2023-08-29T09:16:00.530Z,0.38
2023-08-29T09:18:30.301Z,0.80
2023-08-29T09:21:01.931Z,0.45
2023-08-29T09:23:30.993Z,0.67
2023-08-29T09:26:01.139Z,0.57
2023-08-29T09:28:30.519Z,0.80
2023-08-29T09:31:06.945Z,0.65
2023-08-29T09:33:35.397Z,0.40
2023-08-29T09:36:04.011Z,0.70
2023-08-29T09:38:35.654Z,0.70
2023-08-29T09:41:03.413Z,0.68
2023-08-29T09:43:31.176Z,0.57
2023-08-29T09:45:59.484Z,0.50
2023-08-29T09:48:29.233Z,0.40
2023-08-29T09:50:59.540Z,0.68
2023-08-29T09:53:29.863Z,0.60
2023-08-29T09:56:06.657Z,0.55
2023-08-29T09:58:34.290Z,0.70
2023-08-29T10:01:06.000Z,0.50
2023-08-29T10:03:35.775Z,0.57
2023-08-29T10:06:08.315Z,0.90
2023-08-29T10:08:45.645Z,0.35
2023-08-29T10:11:13.196Z,0.88
2023-08-29T10:13:42.565Z,0.50
2023-08-29T10:16:10.645Z,0.55
2023-08-29T10:18:39.805Z,1.05
2023-08-29T10:21:07.153Z,1.15
2023-08-29T10:23:36.535Z,0.93
2023-08-29T10:26:04.132Z,0.80
2023-08-29T10:28:32.398Z,0.68
2023-08-29T10:31:03.154Z,0.70
2023-08-29T10:33:30.941Z,1.15
2023-08-29T10:35:58.490Z,0.90
2023-08-29T10:38:27.696Z,0.57
2023-08-29T10:41:07.945Z,0.57
2023-08-29T10:43:36.611Z,0.90
2023-08-29T10:46:13.217Z,0.80
2023-08-29T10:48:40.598Z,1.30
2023-08-29T10:51:15.910Z,0.70
2023-08-29T10:53:54.530Z,0.77
2023-08-29T10:56:29.150Z,0.77
2023-08-29T10:58:57.179Z,0.68
2023-08-29T11:01:28.302Z,0.80
2023-08-29T11:04:12.596Z,0.65
2023-08-29T11:06:55.611Z,0.50
2023-08-29T11:09:24.824Z,0.60
2023-08-29T11:12:12.061Z,0.40
2023-08-29T11:14:57.969Z,0.60
2023-08-29T11:17:27.507Z,0.85
2023-08-29T11:20:07.111Z,0.70
2023-08-29T11:22:34.489Z,0.50
2023-08-29T11:25:02.472Z,0.32
2023-08-29T11:27:37.920Z,0.70
2023-08-29T11:30:22.123Z,0.98
2023-08-29T11:32:53.397Z,1.00
2023-08-29T11:35:21.647Z,1.15
2023-08-29T11:37:51.974Z,1.10
2023-08-29T11:40:23.501Z,1.08
2023-08-29T11:43:17.743Z,0.93
2023-08-29T11:45:49.325Z,0.55
2023-08-29T11:48:28.069Z,0.80
2023-08-29T11:50:56.808Z,0.70
2023-08-29T11:53:44.364Z,0.80
2023-08-29T11:56:11.900Z,0.80
2023-08-29T11:58:41.622Z,0.65
2023-08-29T12:01:09.443Z,0.60
2023-08-29T12:03:38.358Z,0.85
2023-08-29T12:06:14.011Z,0.95
2023-08-29T12:08:42.117Z,0.90
2023-08-29T12:11:14.687Z,0.70
2023-08-29T12:13:58.439Z,1.10
2023-08-29T12:16:25.736Z,0.60
2023-08-29T12:19:07.673Z,0.75
2023-08-29T12:21:34.947Z,0.68
2023-08-29T12:24:12.596Z,0.95
2023-08-29T12:26:40.679Z,0.80
2023-08-29T12:29:08.276Z,1.13
2023-08-29T12:31:35.731Z,0.88
2023-08-29T12:34:03.117Z,0.63
2023-08-29T12:36:30.773Z,0.60
2023-08-29T12:38:58.181Z,0.90
2023-08-29T12:41:25.674Z,0.90
2023-08-29T12:43:53.207Z,1.08
2023-08-29T12:46:20.594Z,0.95
2023-08-29T12:48:48.016Z,0.80
2023-08-29T12:51:16.612Z,0.90
2023-08-29T12:53:45.397Z,0.43
2023-08-29T12:56:13.475Z,0.52
2023-08-29T12:58:40.792Z,0.50
2023-08-29T13:01:08.515Z,0.50
2023-08-29T13:03:36.040Z,0.40
2023-08-29T13:06:03.959Z,0.70
2023-08-29T13:08:31.221Z,0.50
2023-08-29T13:10:58.609Z,0.80
2023-08-29T13:13:26.204Z,0.73
2023-08-29T13:15:53.649Z,0.43
2023-08-29T13:18:23.285Z,0.68
2023-08-29T13:20:50.598Z,0.60
2023-08-29T13:23:17.978Z,0.65
2023-08-29T13:25:45.429Z,0.60
2023-08-29T13:28:12.869Z,0.88
2023-08-29T13:30:43.091Z,1.08
2023-08-29T13:33:10.538Z,1.13
2023-08-29T13:35:38.314Z,0.93
2023-08-29T13:38:06.764Z,1.10
2023-08-29T13:40:34.351Z,0.75
2023-08-29T13:43:01.851Z,0.88
2023-08-29T13:45:29.222Z,0.80
2023-08-29T13:47:56.785Z,0.90
2023-08-29T13:50:24.635Z,0.73
2023-08-29T13:52:51.932Z,0.90
2023-08-29T13:55:19.375Z,0.70
2023-08-29T13:57:47.349Z,0.45
2023-08-29T14:00:15.342Z,0.65
2023-08-29T14:02:42.823Z,0.63
2023-08-29T14:05:10.712Z,0.50
2023-08-29T14:07:38.127Z,0.75
2023-08-29T14:10:06.818Z,0.90
2023-08-29T14:12:34.186Z,0.70
2023-08-29T14:15:01.831Z,0.68
2023-08-29T14:17:30.186Z,0.75
2023-08-29T14:20:06.090Z,0.50
2023-08-29T14:22:33.787Z,0.68
2023-08-29T14:25:01.276Z,0.93
2023-08-29T14:27:28.517Z,0.90
2023-08-29T14:29:56.399Z,0.60
2023-08-29T14:32:23.730Z,0.85
2023-08-29T14:34:50.968Z,1.00
2023-08-29T14:37:18.369Z,0.95
2023-08-29T14:39:45.908Z,1.00
2023-08-29T14:42:13.683Z,0.63
2023-08-29T14:44:42.370Z,0.85
2023-08-29T14:47:10.912Z,0.65
2023-08-29T14:49:38.588Z,0.82
2023-08-29T14:52:06.431Z,0.95
2023-08-29T14:54:33.831Z,0.60
2023-08-29T14:57:01.378Z,0.50
2023-08-29T14:59:28.969Z,0.52
2023-08-29T15:01:56.437Z,0.68
2023-08-29T15:04:23.780Z,0.40
2023-08-29T15:06:51.176Z,0.52
2023-08-29T15:09:18.562Z,1.00
2023-08-29T15:11:45.912Z,1.05
2023-08-29T15:14:13.207Z,1.10
2023-08-29T15:16:40.615Z,1.10
2023-08-29T15:19:07.950Z,1.00
2023-08-29T15:21:35.297Z,0.90
2023-08-29T15:24:03.923Z,0.77
2023-08-29T15:26:31.496Z,1.08
2023-08-29T15:28:58.827Z,0.68
2023-08-29T15:31:26.222Z,0.60
2023-08-29T15:33:53.522Z,0.90
2023-08-29T15:36:24.961Z,1.10
2023-08-29T15:38:52.940Z,0.68
2023-08-29T15:41:20.321Z,1.13
2023-08-29T15:43:48.138Z,1.33
2023-08-29T15:46:15.453Z,1.38
2023-08-29T15:48:42.781Z,1.77
2023-08-29T15:51:10.041Z,1.45
2023-08-29T15:53:37.483Z,1.60
2023-08-29T15:56:06.254Z,1.80
2023-08-29T15:58:35.052Z,1.42
2023-08-29T16:01:08.940Z,1.73
2023-08-29T16:03:36.421Z,1.52
2023-08-29T16:06:07.248Z,1.13
2023-08-29T16:08:35.162Z,1.75
2023-08-29T16:11:02.669Z,0.77
2023-08-29T16:13:29.968Z,1.42
2023-08-29T16:15:57.868Z,0.75
2023-08-29T16:18:25.328Z,0.95
2023-08-29T16:20:53.995Z,1.30
2023-08-29T16:23:21.510Z,1.00
2023-08-29T16:25:51.534Z,1.33
2023-08-29T16:28:24.107Z,0.85
2023-08-29T16:33:18.858Z,0.85
2023-08-29T16:35:46.141Z,0.95
2023-08-29T16:38:13.546Z,0.70
2023-08-29T16:40:40.999Z,0.90
2023-08-29T16:43:08.346Z,1.40
2023-08-29T16:45:36.033Z,0.95
2023-08-29T16:48:05.507Z,1.10
2023-08-29T16:50:33.358Z,0.90
2023-08-29T16:53:00.743Z,1.13
2023-08-29T16:55:28.121Z,0.90
2023-08-29T16:57:56.588Z,1.17
2023-08-29T17:00:25.391Z,0.80
2023-08-29T17:02:52.680Z,0.80
2023-08-29T17:05:20.079Z,0.80
2023-08-29T17:07:47.403Z,0.77
2023-08-29T17:10:15.446Z,0.70
2023-08-29T17:12:42.998Z,0.70
2023-08-29T17:15:10.956Z,0.75
2023-08-29T17:17:38.374Z,1.02
2023-08-29T17:20:06.501Z,0.82
2023-08-29T17:22:34.063Z,0.80
2023-08-29T17:25:03.318Z,1.20
2023-08-29T17:27:30.716Z,0.73
2023-08-29T17:29:58.730Z,0.80
2023-08-29T17:32:26.105Z,0.90
2023-08-29T17:34:53.380Z,0.70
2023-08-29T17:37:20.652Z,0.70
2023-08-29T17:39:49.394Z,0.82
2023-08-29T17:42:16.916Z,0.60
2023-08-29T17:44:46.695Z,0.80
2023-08-29T17:47:16.265Z,0.80
2023-08-29T17:49:43.887Z,0.60
2023-08-29T17:52:11.810Z,0.70
2023-08-29T17:54:39.227Z,1.00
2023-08-29T17:57:06.536Z,1.05
2023-08-29T17:59:33.819Z,0.75
2023-08-29T18:02:01.173Z,0.75
2023-08-29T18:04:28.537Z,0.80
2023-08-29T18:06:56.037Z,0.70
2023-08-29T18:09:23.585Z,0.90
2023-08-29T18:11:51.348Z,0.70
2023-08-29T18:14:18.791Z,1.02
2023-08-29T18:16:47.024Z,0.50
2023-08-29T18:19:15.490Z,1.23
2023-08-29T18:21:43.113Z,0.80
2023-08-29T18:24:13.174Z,0.82
2023-08-29T18:26:40.685Z,0.60
2023-08-29T18:29:08.151Z,0.70
2023-08-29T18:31:35.624Z,0.93
2023-08-29T18:34:03.240Z,0.75
2023-08-29T18:36:30.732Z,0.60
2023-08-29T18:39:00.157Z,0.65
2023-08-29T18:41:27.659Z,0.70
2023-08-29T18:43:55.115Z,0.60
2023-08-29T18:46:22.588Z,0.57
2023-08-29T18:48:51.418Z,0.93
2023-08-29T18:51:18.928Z,0.60
2023-08-29T18:53:46.387Z,0.80
2023-08-29T18:56:17.148Z,0.93
2023-08-29T18:58:46.487Z,0.80
2023-08-29T19:01:14.443Z,0.70
2023-08-29T19:03:42.155Z,1.20
2023-08-29T19:06:11.808Z,1.13
2023-08-29T19:08:40.669Z,1.00
2023-08-29T19:11:08.270Z,1.02
2023-08-29T19:13:35.692Z,0.88
2023-08-29T19:16:05.445Z,0.70
2023-08-29T19:18:32.861Z,0.80
2023-08-29T19:21:00.177Z,0.82
2023-08-29T19:23:29.387Z,0.60
2023-08-29T19:25:57.147Z,0.52
2023-08-29T19:28:24.744Z,0.68
2023-08-29T19:30:55.635Z,0.70
2023-08-29T19:33:23.545Z,0.75
2023-08-29T19:35:51.192Z,0.70
2023-08-29T19:38:18.620Z,0.70
2023-08-29T19:40:45.997Z,0.80
2023-08-29T19:43:13.417Z,0.88
2023-08-29T19:45:40.635Z,0.80
2023-08-29T19:48:08.397Z,0.70
2023-08-29T19:50:35.986Z,0.70
2023-08-29T19:53:03.736Z,0.80
2023-08-29T19:55:31.253Z,0.88
2023-08-29T19:57:58.496Z,0.60
2023-08-29T20:00:26.274Z,1.00
2023-08-29T20:02:53.852Z,1.00
2023-08-29T20:05:21.440Z,0.85
2023-08-29T20:07:48.942Z,0.65
2023-08-29T20:10:16.684Z,0.70
2023-08-29T20:12:44.254Z,0.90
2023-08-29T20:15:11.904Z,0.90
2023-08-29T20:17:39.458Z,0.85
2023-08-29T20:20:07.901Z,0.80
2023-08-29T20:22:35.992Z,0.80
2023-08-29T20:25:07.366Z,1.13
2023-08-29T20:27:34.926Z,1.00
2023-08-29T20:30:02.380Z,1.20
2023-08-29T20:32:29.755Z,0.80
2023-08-29T20:34:57.568Z,0.70
2023-08-29T20:37:25.233Z,0.60
2023-08-29T20:39:52.711Z,0.80
2023-08-29T20:42:21.769Z,0.73
2023-08-29T20:44:49.110Z,0.70
2023-08-29T20:47:16.493Z,0.75
2023-08-29T20:49:43.819Z,0.60
2023-08-29T20:52:12.037Z,0.70
2023-08-29T20:54:39.597Z,0.77
2023-08-29T20:57:06.999Z,0.68
2023-08-29T20:59:34.275Z,0.90
2023-08-29T21:02:02.502Z,0.65
2023-08-29T21:04:32.986Z,0.60
2023-08-29T21:07:00.493Z,0.63
2023-08-29T21:09:27.732Z,0.50
2023-08-29T21:11:55.518Z,0.95
2023-08-29T21:14:23.032Z,0.77
2023-08-29T21:16:50.436Z,0.52
2023-08-29T21:19:17.827Z,0.52
2023-08-29T21:21:45.142Z,0.60
2023-08-29T21:24:12.389Z,0.50
2023-08-29T21:26:39.720Z,0.63
2023-08-29T21:29:08.508Z,0.43
2023-08-29T21:31:36.091Z,0.50
2023-08-29T21:34:03.483Z,0.65
2023-08-29T21:36:30.904Z,0.52
2023-08-29T21:38:58.233Z,0.82
2023-08-29T21:41:25.616Z,0.50
2023-08-29T21:43:53.191Z,0.70
2023-08-29T21:46:20.609Z,0.50
2023-08-29T21:48:47.980Z,0.77
2023-08-29T21:51:19.136Z,0.65
2023-08-29T21:53:46.561Z,0.40
2023-08-29T21:56:14.300Z,0.55
2023-08-29T21:58:41.686Z,0.57
2023-08-29T22:01:10.872Z,0.60
2023-08-29T22:03:38.421Z,0.30
2023-08-29T22:06:05.785Z,0.75
2023-08-29T22:08:33.315Z,0.50
2023-08-29T22:11:00.883Z,0.47
2023-08-29T22:13:29.608Z,0.40
2023-08-29T22:15:57.243Z,0.47
2023-08-29T22:18:26.004Z,0.70
2023-08-29T22:20:53.310Z,0.55
2023-08-29T22:23:20.606Z,0.65
2023-08-29T22:25:47.811Z,0.70
2023-08-29T22:28:15.429Z,0.50
2023-08-29T22:30:42.653Z,0.70
2023-08-29T22:33:10.572Z,0.45
2023-08-29T22:35:38.001Z,0.50
2023-08-29T22:38:05.289Z,0.80
2023-08-29T22:40:32.625Z,0.73
2023-08-29T22:42:59.909Z,0.43
2023-08-29T22:45:27.205Z,0.90
2023-08-29T22:47:54.452Z,0.65
2023-08-29T22:50:21.774Z,0.50
2023-08-29T22:52:49.159Z,0.93
2023-08-29T22:55:16.922Z,0.68
2023-08-29T22:57:44.227Z,0.50
2023-08-29T23:00:14.332Z,0.55
2023-08-29T23:02:41.806Z,0.70
2023-08-29T23:05:09.678Z,0.70
2023-08-29T23:07:37.461Z,0.40
2023-08-29T23:10:05.135Z,0.80
2023-08-29T23:12:32.437Z,0.50
2023-08-29T23:14:59.801Z,0.68
2023-08-29T23:17:27.164Z,0.70
2023-08-29T23:19:54.534Z,0.63
2023-08-29T23:22:21.900Z,0.80
2023-08-29T23:24:49.430Z,0.50
2023-08-29T23:27:16.772Z,0.50
2023-08-29T23:29:44.075Z,0.70
2023-08-29T23:32:11.513Z,0.60
2023-08-29T23:34:38.836Z,0.65
2023-08-29T23:37:06.089Z,0.60
2023-08-29T23:39:33.384Z,0.50
2023-08-29T23:42:01.122Z,0.68
2023-08-29T23:44:28.565Z,0.43
2023-08-29T23:46:57.495Z,0.80
2023-08-29T23:49:26.079Z,0.75
2023-08-29T23:51:53.352Z,0.47
2023-08-29T23:54:20.743Z,0.40
2023-08-29T23:56:48.143Z,0.57
2023-08-29T23:59:15.408Z,0.60
